Java, Virginia
Current Conditions -  °F | °C
As of 2:26 PM on Monday 22 Dec 2014 (Local Time) from KDAN Reporting Station
Haze Haze  
Wind Chill: 28°   Ceiling: 600
Heat Index: 36°   Visibility: 2.5mi
Dew Point: 33°   Wind: 10mph
Humidity: 89%   Direction: 40°NE
Pressure: 30.09"   Gusts: NA
Location:  36.84°N, 79.23°W
Report Text: KDAN 221926Z AUTO 04009KT 2 1/2SM BR OVC006 02/01 A3009 RMK AO2 CIG 004V009 T00220006
Loading
Personal Weather Stations






























Interactive Weather Map New forecast layout! Learn more

10-Day Weather Forecast

Advertisements
Track Severe Weather on mobile